sensor_id;sensor_type;location;lat;lon;timestamp;pressure;altitude;pressure_sealevel;temperature;humidity
76611;BME280;65503;48.534;9.062;2023-06-22T00:01:19;97016.16;;;24.11;60.73
76611;BME280;65503;48.534;9.062;2023-06-22T00:03:46;97005.72;;;24.01;60.76
76611;BME280;65503;48.534;9.062;2023-06-22T00:06:13;97017.88;;;23.98;60.89
76611;BME280;65503;48.534;9.062;2023-06-22T00:08:40;97021.03;;;24.00;61.03
76611;BME280;65503;48.534;9.062;2023-06-22T00:11:06;97030.06;;;23.96;61.25
76611;BME280;65503;48.534;9.062;2023-06-22T00:13:33;97027.69;;;23.94;61.55
76611;BME280;65503;48.534;9.062;2023-06-22T00:16:00;97030.66;;;23.93;61.65
76611;BME280;65503;48.534;9.062;2023-06-22T00:18:27;97032.09;;;23.90;61.14
76611;BME280;65503;48.534;9.062;2023-06-22T00:20:55;97030.50;;;23.89;61.68
76611;BME280;65503;48.534;9.062;2023-06-22T00:23:24;97031.16;;;23.86;61.52
76611;BME280;65503;48.534;9.062;2023-06-22T00:25:51;97024.00;;;23.81;61.42
76611;BME280;65503;48.534;9.062;2023-06-22T00:28:17;97026.22;;;23.79;61.95
76611;BME280;65503;48.534;9.062;2023-06-22T00:30:44;97011.97;;;23.70;61.75
76611;BME280;65503;48.534;9.062;2023-06-22T00:33:12;97018.72;;;23.59;62.60
76611;BME280;65503;48.534;9.062;2023-06-22T00:35:38;97005.94;;;23.56;62.47
76611;BME280;65503;48.534;9.062;2023-06-22T00:38:07;97012.41;;;23.46;62.88
76611;BME280;65503;48.534;9.062;2023-06-22T00:40:34;97015.72;;;23.52;62.83
76611;BME280;65503;48.534;9.062;2023-06-22T00:43:01;97002.75;;;23.54;62.82
76611;BME280;65503;48.534;9.062;2023-06-22T00:45:27;97002.41;;;23.47;63.00
76611;BME280;65503;48.534;9.062;2023-06-22T00:47:57;97003.91;;;23.31;63.64
76611;BME280;65503;48.534;9.062;2023-06-22T00:50:27;97014.38;;;23.41;63.55
76611;BME280;65503;48.534;9.062;2023-06-22T00:52:56;97025.91;;;23.41;63.65
76611;BME280;65503;48.534;9.062;2023-06-22T00:55:23;97019.13;;;23.44;63.28
76611;BME280;65503;48.534;9.062;2023-06-22T00:57:50;97021.34;;;23.42;63.52
76611;BME280;65503;48.534;9.062;2023-06-22T01:00:17;97028.97;;;23.48;63.50
76611;BME280;65503;48.534;9.062;2023-06-22T01:02:46;97037.81;;;23.49;63.66
76611;BME280;65503;48.534;9.062;2023-06-22T01:05:14;97030.88;;;23.48;63.42
76611;BME280;65503;48.534;9.062;2023-06-22T01:11:02;97038.78;;;23.53;63.08
76611;BME280;65503;48.534;9.062;2023-06-22T01:14:04;97032.81;;;23.56;62.92
76611;BME280;65503;48.534;9.062;2023-06-22T01:16:35;97034.41;;;23.57;62.63
76611;BME280;65503;48.534;9.062;2023-06-22T01:19:14;97026.00;;;23.59;62.97
76611;BME280;65503;48.534;9.062;2023-06-22T01:21:45;97029.03;;;23.57;63.32
76611;BME280;65503;48.534;9.062;2023-06-22T01:24:22;97026.63;;;23.56;62.88
76611;BME280;65503;48.534;9.062;2023-06-22T01:27:09;97025.31;;;23.44;63.14
76611;BME280;65503;48.534;9.062;2023-06-22T01:29:42;97025.75;;;23.38;63.52
76611;BME280;65503;48.534;9.062;2023-06-22T01:32:10;97028.72;;;23.36;63.92
76611;BME280;65503;48.534;9.062;2023-06-22T01:34:38;97022.25;;;23.29;63.91
76611;BME280;65503;48.534;9.062;2023-06-22T01:37:07;97020.78;;;23.23;63.91
76611;BME280;65503;48.534;9.062;2023-06-22T01:39:34;97027.88;;;23.19;64.08
76611;BME280;65503;48.534;9.062;2023-06-22T01:42:02;97032.91;;;23.12;64.39
76611;BME280;65503;48.534;9.062;2023-06-22T01:44:30;97028.75;;;23.05;64.82
76611;BME280;65503;48.534;9.062;2023-06-22T01:46:57;97024.00;;;23.02;64.94
76611;BME280;65503;48.534;9.062;2023-06-22T01:49:24;97017.31;;;22.91;65.11
76611;BME280;65503;48.534;9.062;2023-06-22T01:51:51;97013.34;;;22.89;65.39
76611;BME280;65503;48.534;9.062;2023-06-22T01:54:17;97012.44;;;22.71;65.45
76611;BME280;65503;48.534;9.062;2023-06-22T01:56:44;97013.81;;;22.68;65.91
76611;BME280;65503;48.534;9.062;2023-06-22T01:59:38;97017.19;;;22.74;65.69
76611;BME280;65503;48.534;9.062;2023-06-22T02:02:09;97031.13;;;22.76;65.49
76611;BME280;65503;48.534;9.062;2023-06-22T02:04:56;97035.50;;;22.72;66.05
76611;BME280;65503;48.534;9.062;2023-06-22T02:07:31;97035.50;;;22.72;65.88
76611;BME280;65503;48.534;9.062;2023-06-22T02:09:59;97030.78;;;22.55;66.44
76611;BME280;65503;48.534;9.062;2023-06-22T02:12:29;97028.66;;;22.44;66.62
76611;BME280;65503;48.534;9.062;2023-06-22T02:14:57;97028.28;;;22.37;67.00
76611;BME280;65503;48.534;9.062;2023-06-22T02:17:25;97019.94;;;22.38;66.83
76611;BME280;65503;48.534;9.062;2023-06-22T02:19:52;97014.19;;;22.31;67.05
76611;BME280;65503;48.534;9.062;2023-06-22T02:22:19;97026.28;;;22.29;67.11
76611;BME280;65503;48.534;9.062;2023-06-22T02:24:45;97019.16;;;22.24;67.36
76611;BME280;65503;48.534;9.062;2023-06-22T02:27:12;97027.50;;;22.22;67.38
76611;BME280;65503;48.534;9.062;2023-06-22T02:29:39;97037.13;;;22.23;67.31
76611;BME280;65503;48.534;9.062;2023-06-22T02:32:05;97030.19;;;22.22;67.53
76611;BME280;65503;48.534;9.062;2023-06-22T02:34:32;97029.09;;;22.23;67.38
76611;BME280;65503;48.534;9.062;2023-06-22T02:37:00;97024.34;;;22.20;67.39
76611;BME280;65503;48.534;9.062;2023-06-22T02:39:28;97022.75;;;22.19;67.26
76611;BME280;65503;48.534;9.062;2023-06-22T02:41:55;97017.69;;;22.18;67.19
76611;BME280;65503;48.534;9.062;2023-06-22T02:44:22;97018.59;;;22.13;67.48
76611;BME280;65503;48.534;9.062;2023-06-22T02:46:49;97014.16;;;22.09;67.57
76611;BME280;65503;48.534;9.062;2023-06-22T02:49:15;97005.53;;;21.98;68.24
76611;BME280;65503;48.534;9.062;2023-06-22T02:51:48;96991.44;;;21.79;68.96
76611;BME280;65503;48.534;9.062;2023-06-22T02:54:14;96992.25;;;21.79;68.61
76611;BME280;65503;48.534;9.062;2023-06-22T02:56:41;96992.44;;;21.83;68.47
76611;BME280;65503;48.534;9.062;2023-06-22T02:59:10;97002.44;;;21.91;68.24
76611;BME280;65503;48.534;9.062;2023-06-22T03:01:37;96998.19;;;21.90;68.37
76611;BME280;65503;48.534;9.062;2023-06-22T03:04:07;96996.22;;;21.96;67.88
76611;BME280;65503;48.534;9.062;2023-06-22T03:06:34;96996.19;;;21.82;68.63
76611;BME280;65503;48.534;9.062;2023-06-22T03:09:03;96997.56;;;21.93;68.11
76611;BME280;65503;48.534;9.062;2023-06-22T03:11:32;97000.84;;;21.90;68.39
76611;BME280;65503;48.534;9.062;2023-06-22T03:14:02;96994.03;;;21.84;68.41
76611;BME280;65503;48.534;9.062;2023-06-22T03:16:30;96994.25;;;21.74;68.80
76611;BME280;65503;48.534;9.062;2023-06-22T03:18:56;96987.97;;;21.78;68.65
76611;BME280;65503;48.534;9.062;2023-06-22T03:21:23;96989.34;;;21.76;68.53
76611;BME280;65503;48.534;9.062;2023-06-22T03:23:49;96986.59;;;21.81;68.71
76611;BME280;65503;48.534;9.062;2023-06-22T03:26:17;96987.97;;;21.92;68.09
76611;BME280;65503;48.534;9.062;2023-06-22T03:28:44;96985.66;;;21.99;67.40
76611;BME280;65503;48.534;9.062;2023-06-22T03:31:10;96984.88;;;21.99;67.52
76611;BME280;65503;48.534;9.062;2023-06-22T03:33:37;96985.66;;;21.99;67.39
76611;BME280;65503;48.534;9.062;2023-06-22T03:36:03;96984.56;;;22.00;67.41
76611;BME280;65503;48.534;9.062;2023-06-22T03:38:30;96988.06;;;22.01;67.46
76611;BME280;65503;48.534;9.062;2023-06-22T03:40:57;96988.22;;;22.04;67.83
76611;BME280;65503;48.534;9.062;2023-06-22T03:43:24;96989.22;;;22.08;67.55
76611;BME280;65503;48.534;9.062;2023-06-22T03:45:50;96982.16;;;22.12;67.44
76611;BME280;65503;48.534;9.062;2023-06-22T03:48:17;96985.22;;;22.19;67.07
76611;BME280;65503;48.534;9.062;2023-06-22T03:50:43;96983.50;;;22.23;67.08
76611;BME280;65503;48.534;9.062;2023-06-22T03:53:10;96989.38;;;22.25;67.06
76611;BME280;65503;48.534;9.062;2023-06-22T03:55:47;96982.00;;;22.31;66.82
76611;BME280;65503;48.534;9.062;2023-06-22T03:58:14;96983.78;;;22.36;66.80
76611;BME280;65503;48.534;9.062;2023-06-22T04:00:40;96971.03;;;22.41;66.72
76611;BME280;65503;48.534;9.062;2023-06-22T04:03:07;96975.19;;;22.47;66.30
76611;BME280;65503;48.534;9.062;2023-06-22T04:05:34;96969.25;;;22.59;66.26
76611;BME280;65503;48.534;9.062;2023-06-22T04:08:01;96960.94;;;22.69;65.97
76611;BME280;65503;48.534;9.062;2023-06-22T04:10:28;96958.16;;;22.74;66.20
76611;BME280;65503;48.534;9.062;2023-06-22T04:12:55;96959.75;;;22.75;65.66
76611;BME280;65503;48.534;9.062;2023-06-22T04:15:23;96972.75;;;22.90;65.02
76611;BME280;65503;48.534;9.062;2023-06-22T04:17:49;96969.69;;;23.05;64.84
76611;BME280;65503;48.534;9.062;2023-06-22T04:20:16;96974.16;;;23.19;64.51
76611;BME280;65503;48.534;9.062;2023-06-22T04:22:42;96969.94;;;23.26;64.09
76611;BME280;65503;48.534;9.062;2023-06-22T04:25:09;96964.41;;;23.31;64.13
76611;BME280;65503;48.534;9.062;2023-06-22T04:27:35;96957.66;;;23.42;64.00
76611;BME280;65503;48.534;9.062;2023-06-22T04:30:08;96960.72;;;23.58;63.23
76611;BME280;65503;48.534;9.062;2023-06-22T04:32:35;96959.50;;;23.81;62.96
76611;BME280;65503;48.534;9.062;2023-06-22T04:35:04;96951.44;;;23.99;61.96
76611;BME280;65503;48.534;9.062;2023-06-22T04:37:33;96950.38;;;24.25;61.30
76611;BME280;65503;48.534;9.062;2023-06-22T04:40:00;96953.81;;;24.60;60.11
76611;BME280;65503;48.534;9.062;2023-06-22T04:42:27;96948.66;;;24.85;59.01
76611;BME280;65503;48.534;9.062;2023-06-22T04:44:53;96947.47;;;25.20;58.65
76611;BME280;65503;48.534;9.062;2023-06-22T04:47:20;96946.38;;;25.50;57.59
76611;BME280;65503;48.534;9.062;2023-06-22T04:49:47;96946.19;;;25.85;56.44
76611;BME280;65503;48.534;9.062;2023-06-22T04:52:13;96940.34;;;26.24;54.93
76611;BME280;65503;48.534;9.062;2023-06-22T04:54:46;96941.75;;;26.43;54.60
76611;BME280;65503;48.534;9.062;2023-06-22T04:57:21;96946.03;;;26.77;53.95
76611;BME280;65503;48.534;9.062;2023-06-22T05:00:00;96939.66;;;27.18;52.54
76611;BME280;65503;48.534;9.062;2023-06-22T05:02:41;96937.69;;;27.51;50.91
76611;BME280;65503;48.534;9.062;2023-06-22T05:05:08;96936.31;;;27.57;50.75
76611;BME280;65503;48.534;9.062;2023-06-22T05:07:35;96935.41;;;27.17;51.30
76611;BME280;65503;48.534;9.062;2023-06-22T05:10:05;96925.94;;;27.23;51.48
76611;BME280;65503;48.534;9.062;2023-06-22T05:12:31;96930.66;;;27.50;50.64
76611;BME280;65503;48.534;9.062;2023-06-22T05:14:58;96927.75;;;27.67;49.80
76611;BME280;65503;48.534;9.062;2023-06-22T05:17:25;96930.56;;;27.71;49.30
76611;BME280;65503;48.534;9.062;2023-06-22T05:19:52;96927.50;;;27.72;49.06
76611;BME280;65503;48.534;9.062;2023-06-22T05:22:18;96930.59;;;27.99;48.53
76611;BME280;65503;48.534;9.062;2023-06-22T05:24:45;96935.34;;;28.02;48.17
76611;BME280;65503;48.534;9.062;2023-06-22T05:27:12;96926.81;;;28.27;47.96
76611;BME280;65503;48.534;9.062;2023-06-22T05:29:39;96929.16;;;28.29;48.43
76611;BME280;65503;48.534;9.062;2023-06-22T05:32:06;96932.47;;;28.22;46.93
76611;BME280;65503;48.534;9.062;2023-06-22T05:34:32;96937.44;;;28.76;46.68
76611;BME280;65503;48.534;9.062;2023-06-22T05:36:59;96936.13;;;29.01;45.57
76611;BME280;65503;48.534;9.062;2023-06-22T05:39:26;96941.19;;;29.66;44.83
76611;BME280;65503;48.534;9.062;2023-06-22T05:41:54;96951.91;;;30.13;44.90
76611;BME280;65503;48.534;9.062;2023-06-22T05:44:20;96941.25;;;30.62;42.83
76611;BME280;65503;48.534;9.062;2023-06-22T05:46:47;96940.81;;;30.79;42.42
76611;BME280;65503;48.534;9.062;2023-06-22T05:49:15;96948.25;;;31.28;41.24
76611;BME280;65503;48.534;9.062;2023-06-22T05:51:42;96944.22;;;31.67;40.97
76611;BME280;65503;48.534;9.062;2023-06-22T05:54:14;96946.88;;;31.90;40.15
76611;BME280;65503;48.534;9.062;2023-06-22T05:56:44;96944.81;;;32.10;39.47
76611;BME280;65503;48.534;9.062;2023-06-22T05:59:11;96944.00;;;32.09;40.11
76611;BME280;65503;48.534;9.062;2023-06-22T06:01:38;96940.22;;;32.14;39.18
76611;BME280;65503;48.534;9.062;2023-06-22T06:04:06;96937.69;;;32.01;39.57
76611;BME280;65503;48.534;9.062;2023-06-22T06:06:35;96942.41;;;32.05;39.61
76611;BME280;65503;48.534;9.062;2023-06-22T06:09:04;96941.88;;;32.22;39.47
76611;BME280;65503;48.534;9.062;2023-06-22T06:11:31;96942.22;;;32.17;39.14
76611;BME280;65503;48.534;9.062;2023-06-22T06:13:57;96941.53;;;32.27;39.18
76611;BME280;65503;48.534;9.062;2023-06-22T06:16:24;96936.19;;;32.34;38.72
76611;BME280;65503;48.534;9.062;2023-06-22T06:18:51;96931.22;;;32.43;38.63
76611;BME280;65503;48.534;9.062;2023-06-22T06:21:19;96937.63;;;32.58;37.73
76611;BME280;65503;48.534;9.062;2023-06-22T06:23:46;96952.72;;;32.85;37.48
76611;BME280;65503;48.534;9.062;2023-06-22T06:26:13;96944.84;;;32.76;38.07
76611;BME280;65503;48.534;9.062;2023-06-22T06:28:43;96932.56;;;32.23;38.03
76611;BME280;65503;48.534;9.062;2023-06-22T06:31:10;96929.00;;;31.40;40.24
76611;BME280;65503;48.534;9.062;2023-06-22T06:33:38;96933.00;;;31.98;39.21
76611;BME280;65503;48.534;9.062;2023-06-22T06:36:05;96933.38;;;32.27;38.32
76611;BME280;65503;48.534;9.062;2023-06-22T06:38:31;96939.72;;;32.71;38.60
76611;BME280;65503;48.534;9.062;2023-06-22T06:40:58;96942.25;;;33.35;37.04
76611;BME280;65503;48.534;9.062;2023-06-22T06:43:25;96935.56;;;33.80;35.82
76611;BME280;65503;48.534;9.062;2023-06-22T06:45:51;96934.47;;;33.95;35.13
76611;BME280;65503;48.534;9.062;2023-06-22T06:48:18;96934.69;;;33.69;35.75
76611;BME280;65503;48.534;9.062;2023-06-22T06:50:44;96937.59;;;33.39;34.54
76611;BME280;65503;48.534;9.062;2023-06-22T06:53:11;96942.41;;;33.52;35.13
76611;BME280;65503;48.534;9.062;2023-06-22T06:55:37;96939.38;;;33.65;35.65
76611;BME280;65503;48.534;9.062;2023-06-22T06:58:04;96936.63;;;33.65;35.54
76611;BME280;65503;48.534;9.062;2023-06-22T07:00:34;96927.00;;;33.85;35.59
76611;BME280;65503;48.534;9.062;2023-06-22T07:03:02;96925.47;;;33.33;36.12
76611;BME280;65503;48.534;9.062;2023-06-22T07:05:28;96930.00;;;33.66;36.06
76611;BME280;65503;48.534;9.062;2023-06-22T07:07:55;96933.06;;;33.53;35.85
76611;BME280;65503;48.534;9.062;2023-06-22T07:10:22;96926.63;;;33.83;35.45
76611;BME280;65503;48.534;9.062;2023-06-22T07:12:48;96919.28;;;34.01;34.56
76611;BME280;65503;48.534;9.062;2023-06-22T07:15:15;96916.16;;;33.99;34.60
76611;BME280;65503;48.534;9.062;2023-06-22T07:17:42;96907.75;;;34.32;33.70
76611;BME280;65503;48.534;9.062;2023-06-22T07:20:09;96895.94;;;34.11;34.07
76611;BME280;65503;48.534;9.062;2023-06-22T07:22:40;96896.00;;;34.21;33.62
76611;BME280;65503;48.534;9.062;2023-06-22T07:25:07;96900.72;;;33.08;35.94
76611;BME280;65503;48.534;9.062;2023-06-22T07:27:58;96888.22;;;33.07;35.38
76611;BME280;65503;48.534;9.062;2023-06-22T07:30:25;96885.03;;;32.57;36.27
76611;BME280;65503;48.534;9.062;2023-06-22T07:32:51;96873.56;;;31.48;38.22
76611;BME280;65503;48.534;9.062;2023-06-22T07:35:18;96874.28;;;31.71;38.70
76611;BME280;65503;48.534;9.062;2023-06-22T07:37:45;96870.97;;;32.15;37.41
76611;BME280;65503;48.534;9.062;2023-06-22T07:40:12;96866.63;;;31.80;38.12
76611;BME280;65503;48.534;9.062;2023-06-22T07:42:39;96865.28;;;31.97;37.98
76611;BME280;65503;48.534;9.062;2023-06-22T07:45:06;96869.22;;;32.03;37.75
76611;BME280;65503;48.534;9.062;2023-06-22T07:47:34;96872.97;;;32.58;37.50
76611;BME280;65503;48.534;9.062;2023-06-22T07:50:04;96872.34;;;32.68;36.38
76611;BME280;65503;48.534;9.062;2023-06-22T07:52:32;96864.34;;;32.53;36.95
76611;BME280;65503;48.534;9.062;2023-06-22T07:54:58;96869.22;;;31.99;37.61
76611;BME280;65503;48.534;9.062;2023-06-22T07:57:25;96868.06;;;31.71;39.11
76611;BME280;65503;48.534;9.062;2023-06-22T08:00:00;96877.50;;;32.44;38.15
76611;BME280;65503;48.534;9.062;2023-06-22T08:02:27;96892.31;;;33.27;36.33
76611;BME280;65503;48.534;9.062;2023-06-22T08:04:54;96904.50;;;34.06;34.20
76611;BME280;65503;48.534;9.062;2023-06-22T08:07:40;96909.34;;;34.55;33.17
76611;BME280;65503;48.534;9.062;2023-06-22T08:10:12;96916.31;;;34.27;33.65
76611;BME280;65503;48.534;9.062;2023-06-22T08:12:40;96921.69;;;34.06;34.23
76611;BME280;65503;48.534;9.062;2023-06-22T08:15:07;96939.81;;;34.50;32.65
76611;BME280;65503;48.534;9.062;2023-06-22T08:17:34;96940.44;;;34.11;33.60
76611;BME280;65503;48.534;9.062;2023-06-22T08:20:01;96932.41;;;33.71;35.05
76611;BME280;65503;48.534;9.062;2023-06-22T08:22:28;96950.06;;;32.92;36.67
76611;BME280;65503;48.534;9.062;2023-06-22T08:24:54;96944.19;;;32.90;36.79
76611;BME280;65503;48.534;9.062;2023-06-22T08:27:20;96936.50;;;33.43;36.30
76611;BME280;65503;48.534;9.062;2023-06-22T08:29:50;96932.22;;;33.49;36.03
76611;BME280;65503;48.534;9.062;2023-06-22T08:32:17;96934.81;;;33.83;35.32
76611;BME280;65503;48.534;9.062;2023-06-22T08:34:44;96946.50;;;33.80;34.74
76611;BME280;65503;48.534;9.062;2023-06-22T08:37:10;96940.78;;;33.44;35.77
76611;BME280;65503;48.534;9.062;2023-06-22T08:39:37;96949.06;;;33.58;35.85
76611;BME280;65503;48.534;9.062;2023-06-22T08:42:05;96947.56;;;33.17;36.94
76611;BME280;65503;48.534;9.062;2023-06-22T08:44:32;96939.09;;;33.29;36.73
76611;BME280;65503;48.534;9.062;2023-06-22T08:46:58;96926.09;;;33.15;36.14
76611;BME280;65503;48.534;9.062;2023-06-22T08:49:25;96920.78;;;32.86;36.75
76611;BME280;65503;48.534;9.062;2023-06-22T08:51:52;96909.28;;;32.29;38.01
76611;BME280;65503;48.534;9.062;2023-06-22T08:54:20;96904.28;;;32.05;39.27
76611;BME280;65503;48.534;9.062;2023-06-22T08:56:46;96917.59;;;32.43;38.09
76611;BME280;65503;48.534;9.062;2023-06-22T08:59:13;96933.84;;;33.10;37.54
76611;BME280;65503;48.534;9.062;2023-06-22T09:01:39;96943.13;;;34.04;35.07
76611;BME280;65503;48.534;9.062;2023-06-22T09:04:06;96937.38;;;34.23;35.20
76611;BME280;65503;48.534;9.062;2023-06-22T09:06:39;96935.56;;;33.76;35.98
76611;BME280;65503;48.534;9.062;2023-06-22T09:09:12;96933.56;;;33.70;35.95
76611;BME280;65503;48.534;9.062;2023-06-22T09:11:39;96925.81;;;33.79;35.91
76611;BME280;65503;48.534;9.062;2023-06-22T09:14:06;96926.47;;;34.30;34.81
76611;BME280;65503;48.534;9.062;2023-06-22T09:16:33;96929.72;;;34.68;34.63
76611;BME280;65503;48.534;9.062;2023-06-22T09:19:00;96916.38;;;34.52;34.65
76611;BME280;65503;48.534;9.062;2023-06-22T09:21:26;96907.06;;;34.71;35.29
76611;BME280;65503;48.534;9.062;2023-06-22T09:23:53;96899.66;;;34.75;34.06
76611;BME280;65503;48.534;9.062;2023-06-22T09:26:20;96888.03;;;33.95;35.22
76611;BME280;65503;48.534;9.062;2023-06-22T09:28:47;96886.50;;;34.01;34.94
76611;BME280;65503;48.534;9.062;2023-06-22T09:31:13;96875.78;;;34.68;33.96
76611;BME280;65503;48.534;9.062;2023-06-22T09:33:42;96873.50;;;34.95;34.36
76611;BME280;65503;48.534;9.062;2023-06-22T09:36:08;96872.69;;;34.77;35.06
76611;BME280;65503;48.534;9.062;2023-06-22T09:38:38;96887.53;;;35.15;33.67
76611;BME280;65503;48.534;9.062;2023-06-22T09:41:05;96873.06;;;35.71;33.36
76611;BME280;65503;48.534;9.062;2023-06-22T09:43:32;96888.09;;;36.29;32.62
76611;BME280;65503;48.534;9.062;2023-06-22T09:46:01;96880.91;;;36.56;32.21
76611;BME280;65503;48.534;9.062;2023-06-22T09:48:29;96873.53;;;36.98;30.52
76611;BME280;65503;48.534;9.062;2023-06-22T09:50:58;96866.66;;;36.75;30.63
76611;BME280;65503;48.534;9.062;2023-06-22T09:53:25;96848.31;;;35.89;32.44
76611;BME280;65503;48.534;9.062;2023-06-22T09:55:51;96846.91;;;35.20;32.99
76611;BME280;65503;48.534;9.062;2023-06-22T09:58:18;96836.38;;;34.80;33.85
76611;BME280;65503;48.534;9.062;2023-06-22T10:00:44;96832.78;;;34.58;34.70
76611;BME280;65503;48.534;9.062;2023-06-22T10:03:10;96829.69;;;34.67;34.73
76611;BME280;65503;48.534;9.062;2023-06-22T10:05:37;96828.69;;;33.85;35.25
76611;BME280;65503;48.534;9.062;2023-06-22T10:08:04;96827.13;;;33.84;35.21
76611;BME280;65503;48.534;9.062;2023-06-22T10:10:30;96816.50;;;33.03;38.04
76611;BME280;65503;48.534;9.062;2023-06-22T10:13:02;96827.94;;;33.88;37.16
76611;BME280;65503;48.534;9.062;2023-06-22T10:15:29;96822.59;;;34.27;35.42
76611;BME280;65503;48.534;9.062;2023-06-22T10:17:56;96824.97;;;34.46;35.17
76611;BME280;65503;48.534;9.062;2023-06-22T10:20:22;96827.00;;;34.74;34.40
76611;BME280;65503;48.534;9.062;2023-06-22T10:22:49;96817.97;;;35.12;33.55
76611;BME280;65503;48.534;9.062;2023-06-22T10:25:15;96817.16;;;35.37;32.36
76611;BME280;65503;48.534;9.062;2023-06-22T10:27:42;96821.13;;;34.79;32.95
76611;BME280;65503;48.534;9.062;2023-06-22T10:30:09;96807.00;;;34.34;34.32
76611;BME280;65503;48.534;9.062;2023-06-22T10:32:39;96806.25;;;34.62;34.67
76611;BME280;65503;48.534;9.062;2023-06-22T10:35:06;96810.19;;;34.72;34.98
76611;BME280;65503;48.534;9.062;2023-06-22T10:37:33;96811.34;;;34.78;34.55
76611;BME280;65503;48.534;9.062;2023-06-22T10:39:59;96810.16;;;34.93;34.14
76611;BME280;65503;48.534;9.062;2023-06-22T10:42:26;96808.59;;;35.06;33.40
76611;BME280;65503;48.534;9.062;2023-06-22T10:44:54;96799.25;;;34.79;34.01
76611;BME280;65503;48.534;9.062;2023-06-22T10:47:21;96801.56;;;34.77;34.23
76611;BME280;65503;48.534;9.062;2023-06-22T10:49:47;96799.59;;;35.13;33.63
76611;BME280;65503;48.534;9.062;2023-06-22T10:52:14;96800.78;;;34.87;33.49
76611;BME280;65503;48.534;9.062;2023-06-22T10:54:41;96808.47;;;34.18;35.55
76611;BME280;65503;48.534;9.062;2023-06-22T10:57:07;96801.84;;;34.08;36.17
76611;BME280;65503;48.534;9.062;2023-06-22T10:59:34;96804.94;;;34.03;35.64
76611;BME280;65503;48.534;9.062;2023-06-22T11:02:01;96805.81;;;34.35;34.89
76611;BME280;65503;48.534;9.062;2023-06-22T11:04:28;96796.47;;;34.65;34.60
76611;BME280;65503;48.534;9.062;2023-06-22T11:06:55;96793.72;;;34.43;35.66
76611;BME280;65503;48.534;9.062;2023-06-22T11:09:22;96807.84;;;34.74;35.54
76611;BME280;65503;48.534;9.062;2023-06-22T11:11:56;96804.69;;;34.93;35.18
76611;BME280;65503;48.534;9.062;2023-06-22T11:14:23;96795.28;;;34.66;35.86
76611;BME280;65503;48.534;9.062;2023-06-22T11:16:49;96799.22;;;34.51;35.62
76611;BME280;65503;48.534;9.062;2023-06-22T11:19:16;96804.66;;;34.22;35.72
76611;BME280;65503;48.534;9.062;2023-06-22T11:21:43;96785.91;;;34.28;35.32
76611;BME280;65503;48.534;9.062;2023-06-22T11:24:09;96771.84;;;34.65;35.71
76611;BME280;65503;48.534;9.062;2023-06-22T11:26:36;96770.28;;;34.64;35.23
76611;BME280;65503;48.534;9.062;2023-06-22T11:29:03;96772.63;;;34.33;35.49
76611;BME280;65503;48.534;9.062;2023-06-22T11:31:34;96772.66;;;34.62;36.33
76611;BME280;65503;48.534;9.062;2023-06-22T11:34:01;96765.63;;;34.57;35.88
76611;BME280;65503;48.534;9.062;2023-06-22T11:36:29;96780.41;;;34.17;36.45
76611;BME280;65503;48.534;9.062;2023-06-22T11:38:55;96803.88;;;34.32;36.18
76611;BME280;65503;48.534;9.062;2023-06-22T11:41:22;96809.34;;;34.39;36.48
76611;BME280;65503;48.534;9.062;2023-06-22T11:43:49;96800.75;;;34.41;35.50
76611;BME280;65503;48.534;9.062;2023-06-22T11:46:15;96785.16;;;34.66;35.99
76611;BME280;65503;48.534;9.062;2023-06-22T11:48:42;96784.38;;;34.87;35.40
76611;BME280;65503;48.534;9.062;2023-06-22T11:51:08;96777.31;;;35.07;35.95
76611;BME280;65503;48.534;9.062;2023-06-22T11:53:35;96778.50;;;35.06;35.62
76611;BME280;65503;48.534;9.062;2023-06-22T11:56:01;96774.19;;;34.98;34.91
76611;BME280;65503;48.534;9.062;2023-06-22T11:58:27;96785.16;;;34.91;35.74
76611;BME280;65503;48.534;9.062;2023-06-22T12:00:54;96781.25;;;34.96;35.48
76611;BME280;65503;48.534;9.062;2023-06-22T12:03:21;96776.53;;;35.03;34.76
76611;BME280;65503;48.534;9.062;2023-06-22T12:05:50;96778.09;;;35.08;35.25
76611;BME280;65503;48.534;9.062;2023-06-22T12:08:17;96787.47;;;35.07;35.30
76611;BME280;65503;48.534;9.062;2023-06-22T12:10:44;96776.53;;;35.10;35.63
76611;BME280;65503;48.534;9.062;2023-06-22T12:13:11;96771.84;;;35.00;36.54
76611;BME280;65503;48.534;9.062;2023-06-22T12:15:38;96773.41;;;34.94;36.19
76611;BME280;65503;48.534;9.062;2023-06-22T12:18:04;96796.09;;;34.70;36.25
76611;BME280;65503;48.534;9.062;2023-06-22T12:20:31;96810.53;;;34.38;36.10
76611;BME280;65503;48.534;9.062;2023-06-22T12:22:58;96812.38;;;34.13;36.54
76611;BME280;65503;48.534;9.062;2023-06-22T12:25:25;96821.75;;;34.05;36.41
76611;BME280;65503;48.534;9.062;2023-06-22T12:27:52;96834.25;;;34.13;37.10
76611;BME280;65503;48.534;9.062;2023-06-22T12:30:18;96819.38;;;33.96;37.63
76611;BME280;65503;48.534;9.062;2023-06-22T12:32:44;96824.69;;;33.68;38.28
76611;BME280;65503;48.534;9.062;2023-06-22T12:35:11;96833.66;;;33.69;38.39
76611;BME280;65503;48.534;9.062;2023-06-22T12:37:41;96829.31;;;33.53;38.80
76611;BME280;65503;48.534;9.062;2023-06-22T12:40:09;96819.16;;;33.50;37.88
76611;BME280;65503;48.534;9.062;2023-06-22T12:42:36;96815.38;;;33.73;38.61
76611;BME280;65503;48.534;9.062;2023-06-22T12:45:03;96804.53;;;33.94;38.97
76611;BME280;65503;48.534;9.062;2023-06-22T12:47:30;96795.25;;;34.20;38.31
76611;BME280;65503;48.534;9.062;2023-06-22T12:49:57;96791.38;;;34.31;37.68
76611;BME280;65503;48.534;9.062;2023-06-22T12:52:23;96783.56;;;34.40;37.88
76611;BME280;65503;48.534;9.062;2023-06-22T12:54:50;96795.69;;;34.39;37.15
76611;BME280;65503;48.534;9.062;2023-06-22T12:57:21;96798.38;;;34.25;37.07
76611;BME280;65503;48.534;9.062;2023-06-22T12:59:48;96795.28;;;34.27;36.27
76611;BME280;65503;48.534;9.062;2023-06-22T13:02:14;96783.97;;;34.28;36.75
76611;BME280;65503;48.534;9.062;2023-06-22T13:04:41;96776.53;;;34.47;35.86
76611;BME280;65503;48.534;9.062;2023-06-22T13:07:09;96769.13;;;34.61;36.51